Time;durP1;ratioP1;P1;durP2;ratioP2;P2;SDS_P1;SDS_P2;PMS_P1;PMS_P2;Temp;Humidity;BMP_temperature;BMP_pressure;BME280_temperature;BME280_humidity;BME280_pressure;Samples;Min_cycle;Max_cycle;Signal;HPM_P1;HPM_P2
2022/06/06 00:01:20;;;;;;;8.00;7.20;;;;;;;21.90;68.78;99702.16;5039313;28;20090;-83
2022/06/06 00:03:47;;;;;;;7.93;7.03;;;;;;;21.86;68.35;99710.91;5038594;28;20071;-83
2022/06/06 00:06:18;;;;;;;6.75;6.15;;;;;;;21.89;65.95;99737.31;5042786;28;20479;-84
2022/06/06 00:08:44;;;;;;;7.22;6.40;;;;;;;21.93;66.75;99785.06;5033593;28;20041;-84
2022/06/06 00:11:10;;;;;;;7.18;6.57;;;;;;;21.99;66.62;99860.03;5043963;28;20079;-83
2022/06/06 00:13:45;;;;;;;10.98;5.88;;;;;;;21.80;69.81;99893.66;5036902;28;20029;-83
2022/06/06 00:16:10;;;;;;;7.10;4.47;;;;;;;21.37;73.45;99910.19;5036825;28;20107;-84
2022/06/06 00:18:36;;;;;;;8.90;4.40;;;;;;;21.09;75.77;99908.63;5040640;28;20470;-83
2022/06/06 00:21:03;;;;;;;7.22;3.83;;;;;;;20.73;78.43;99887.84;5041317;28;20025;-83
2022/06/06 00:23:29;;;;;;;9.23;4.53;;;;;;;20.58;79.78;99904.22;5035153;28;20764;-83
2022/06/06 00:25:56;;;;;;;8.63;3.70;;;;;;;20.44;80.47;99906.75;5038352;28;20124;-83
2022/06/06 00:28:21;;;;;;;8.77;2.67;;;;;;;20.23;81.51;99901.78;5041714;28;20049;-83
2022/06/06 00:30:48;;;;;;;4.00;1.98;;;;;;;20.01;83.28;99886.34;5032739;28;20037;-83
2022/06/06 00:35:59;;;;;;;6.20;1.52;;;;;;;19.83;85.59;99889.59;5032726;28;20034;-83
2022/06/06 00:38:25;;;;;;;4.28;1.80;;;;;;;19.64;86.87;99882.06;5038449;28;20037;-83
2022/06/06 00:40:50;;;;;;;4.18;1.20;;;;;;;19.57;87.75;99902.25;5037042;28;20032;-83
2022/06/06 00:43:18;;;;;;;2.97;1.05;;;;;;;19.47;88.96;99924.94;5041147;28;20047;-83
2022/06/06 00:45:45;;;;;;;3.33;1.02;;;;;;;19.36;89.70;99926.88;5041603;28;20036;-83
2022/06/06 00:48:21;;;;;;;1.85;0.75;;;;;;;19.26;91.19;99940.34;5034039;28;20041;-82
2022/06/06 00:50:58;;;;;;;4.65;1.00;;;;;;;19.18;92.70;99956.13;5037660;28;20032;-83
2022/06/06 00:53:47;;;;;;;3.38;1.00;;;;;;;18.98;95.00;99953.38;5041049;28;20115;-83
2022/06/06 00:56:38;;;;;;;3.35;1.08;;;;;;;18.93;96.42;99948.47;5041938;28;20087;-84
2022/06/06 00:59:12;;;;;;;2.22;0.90;;;;;;;18.73;99.11;99942.91;5045207;28;20043;-83
2022/06/06 01:01:38;;;;;;;10.27;1.70;;;;;;;18.66;100.00;99948.97;5041704;28;20040;-83
2022/06/06 01:04:04;;;;;;;9.38;1.40;;;;;;;18.44;100.00;99971.94;5031780;28;20021;-83
2022/06/06 01:06:33;;;;;;;5.10;1.33;;;;;;;18.31;100.00;99991.97;5035449;28;20033;-82
2022/06/06 01:08:59;;;;;;;5.88;1.10;;;;;;;18.20;100.00;99988.97;5043444;28;20120;-82
2022/06/06 01:11:24;;;;;;;1.95;0.90;;;;;;;18.04;100.00;100006.38;5037645;28;20112;-83
2022/06/06 01:13:51;;;;;;;1.95;0.93;;;;;;;17.96;100.00;100013.66;5040350;28;20111;-85
2022/06/06 01:16:19;;;;;;;3.10;1.00;;;;;;;17.92;100.00;100027.88;5045893;28;20035;-83
2022/06/06 01:18:51;;;;;;;4.22;0.95;;;;;;;17.90;100.00;100043.69;5033876;28;20083;-82
2022/06/06 01:21:41;;;;;;;2.55;1.10;;;;;;;17.81;100.00;100038.94;5036677;28;20041;-82
2022/06/06 01:24:17;;;;;;;2.10;1.00;;;;;;;17.73;100.00;100048.25;5039650;28;20049;-82
2022/06/06 01:26:42;;;;;;;2.17;1.10;;;;;;;17.70;100.00;100036.75;5037180;28;20068;-82
2022/06/06 01:29:28;;;;;;;3.90;1.52;;;;;;;17.66;100.00;100015.78;5041955;28;20118;-82
2022/06/06 01:32:07;;;;;;;3.65;1.27;;;;;;;17.59;100.00;100000.09;5035846;28;20470;-82
2022/06/06 01:34:36;;;;;;;4.45;1.58;;;;;;;17.52;100.00;99994.84;5034018;28;20041;-81
2022/06/06 01:37:03;;;;;;;2.42;1.10;;;;;;;17.48;100.00;99993.50;5042953;28;20043;-84
2022/06/06 01:39:31;;;;;;;1.83;1.00;;;;;;;17.44;100.00;99998.53;5044150;28;20537;-84
2022/06/06 01:42:27;;;;;;;2.25;1.20;;;;;;;17.38;100.00;100003.28;5020190;28;20033;-84
2022/06/06 01:45:07;;;;;;;2.95;1.20;;;;;;;17.34;100.00;100013.94;5037997;28;20038;-82
2022/06/06 01:47:49;;;;;;;2.38;1.13;;;;;;;17.35;100.00;100019.03;5046096;28;20482;-83
2022/06/06 01:50:16;;;;;;;1.73;1.00;;;;;;;17.35;100.00;100027.44;5037817;28;20057;-83
2022/06/06 01:53:01;;;;;;;3.13;1.10;;;;;;;17.27;100.00;100029.09;5030983;28;20498;-82
2022/06/06 01:55:28;;;;;;;3.30;1.15;;;;;;;17.40;100.00;100037.22;5018513;28;20407;-82
2022/06/06 01:57:59;;;;;;;5.07;1.40;;;;;;;17.46;100.00;100038.88;5036303;28;20316;-82
2022/06/06 02:00:26;;;;;;;2.45;1.30;;;;;;;17.41;100.00;100022.72;5042107;28;20068;-82
2022/06/06 02:02:52;;;;;;;3.30;1.40;;;;;;;17.34;100.00;99992.28;5037810;28;20388;-82
2022/06/06 02:05:17;;;;;;;2.30;1.30;;;;;;;17.26;100.00;99949.06;5034190;28;20021;-83
2022/06/06 02:07:43;;;;;;;4.25;1.60;;;;;;;17.30;100.00;99930.03;5036180;28;20738;-82
2022/06/06 02:10:12;;;;;;;2.78;1.45;;;;;;;17.26;100.00;99929.47;5038334;28;20033;-82
2022/06/06 02:12:39;;;;;;;5.25;1.23;;;;;;;17.26;100.00;99926.66;5037139;28;20479;-83
2022/06/06 02:15:07;;;;;;;2.33;1.30;;;;;;;17.22;100.00;99926.06;5038451;28;20060;-83
2022/06/06 02:17:32;;;;;;;2.20;1.30;;;;;;;17.23;100.00;99928.38;5036163;28;20099;-83
2022/06/06 02:19:59;;;;;;;2.20;1.45;;;;;;;17.19;100.00;99913.00;5035933;28;20025;-83
2022/06/06 02:22:24;;;;;;;3.38;1.50;;;;;;;17.22;100.00;99920.47;5034130;28;20182;-84
2022/06/06 02:24:50;;;;;;;4.00;1.50;;;;;;;17.25;100.00;99934.28;5039346;28;20033;-83
2022/06/06 02:27:15;;;;;;;2.92;1.58;;;;;;;17.29;100.00;99942.50;5039119;28;20056;-84
2022/06/06 02:29:43;;;;;;;3.15;1.75;;;;;;;17.24;100.00;99943.16;5027007;28;20501;-84
2022/06/06 02:32:11;;;;;;;5.90;1.88;;;;;;;17.33;100.00;99976.72;5035656;28;20026;-84
2022/06/06 02:34:37;;;;;;;2.80;1.75;;;;;;;17.32;100.00;99968.78;5037706;28;20036;-84
2022/06/06 02:37:03;;;;;;;2.70;2.00;;;;;;;17.31;100.00;99973.59;5035206;28;20123;-84
2022/06/06 02:39:29;;;;;;;3.40;2.20;;;;;;;17.30;100.00;99969.28;5041849;28;20116;-84
2022/06/06 02:41:54;;;;;;;4.55;2.38;;;;;;;17.32;100.00;99947.13;5032446;28;20033;-84
2022/06/06 02:44:20;;;;;;;2.97;2.67;;;;;;;17.24;100.00;99951.56;5032833;28;20085;-84
2022/06/06 02:46:47;;;;;;;5.45;2.90;;;;;;;17.33;100.00;99943.06;5035840;28;20112;-86
2022/06/06 02:49:12;;;;;;;3.85;3.08;;;;;;;17.34;100.00;99936.22;5038844;28;20026;-84
2022/06/06 02:51:38;;;;;;;5.28;3.22;;;;;;;17.27;100.00;99931.75;5032281;28;20522;-84
2022/06/06 02:54:04;;;;;;;4.10;3.13;;;;;;;17.34;100.00;99943.84;5033803;28;20338;-84
2022/06/06 02:56:29;;;;;;;4.55;3.42;;;;;;;17.38;100.00;99939.59;5031789;28;20391;-84
2022/06/06 02:58:57;;;;;;;4.50;3.30;;;;;;;17.42;100.00;99931.75;5030362;28;20378;-84
2022/06/06 03:01:23;;;;;;;7.85;3.67;;;;;;;17.46;100.00;99934.34;5034073;28;20037;-84
2022/06/06 03:03:48;;;;;;;6.95;3.70;;;;;;;17.52;100.00;99938.00;5033614;28;20044;-84
2022/06/06 03:06:26;;;;;;;5.45;3.55;;;;;;;17.54;100.00;99929.88;5032867;28;20503;-84
2022/06/06 03:08:55;;;;;;;8.13;4.25;;;;;;;17.52;100.00;99924.75;5036500;28;20060;-86
2022/06/06 03:11:36;;;;;;;5.07;3.78;;;;;;;17.48;100.00;99915.75;5041915;28;20056;-86
2022/06/06 03:14:14;;;;;;;6.25;3.40;;;;;;;17.54;100.00;99913.84;5040660;28;20036;-86
2022/06/06 03:23:06;;;;;;;4.78;4.25;;;;;;;17.33;100.00;99954.28;5034482;28;20539;-85
2022/06/06 03:25:38;;;;;;;5.70;4.13;;;;;;;17.29;100.00;99964.91;5037902;28;20030;-85
2022/06/06 03:28:33;;;;;;;7.07;4.35;;;;;;;17.27;100.00;99984.25;5040065;28;20045;-86
2022/06/06 03:31:23;;;;;;;6.80;4.63;;;;;;;17.21;100.00;99989.00;5031744;28;20045;-85
2022/06/06 03:34:18;;;;;;;6.55;4.43;;;;;;;17.17;100.00;99997.59;5037162;28;20033;-86
2022/06/06 03:37:02;;;;;;;6.15;4.47;;;;;;;17.09;100.00;99998.47;5027724;28;20051;-85
2022/06/06 03:39:36;;;;;;;5.63;4.53;;;;;;;17.11;100.00;100004.34;5039176;28;20087;-86
2022/06/06 03:42:10;;;;;;;6.78;4.63;;;;;;;17.12;100.00;100000.28;5038415;28;20029;-86
2022/06/06 03:45:11;;;;;;;5.32;4.82;;;;;;;17.14;100.00;100003.41;5039816;28;20560;-85
2022/06/06 03:48:07;;;;;;;4.82;4.43;;;;;;;17.14;100.00;99997.78;5005185;28;20050;-85
2022/06/06 03:50:44;;;;;;;13.50;5.00;;;;;;;17.14;100.00;100001.38;5037799;28;20110;-85
2022/06/06 03:53:15;;;;;;;5.55;4.47;;;;;;;17.09;100.00;99995.66;5036751;28;20514;-86
2022/06/06 03:55:54;;;;;;;5.80;5.15;;;;;;;17.10;100.00;100003.59;5037355;28;20032;-85
2022/06/06 03:58:22;;;;;;;5.32;4.80;;;;;;;17.11;100.00;100005.13;5043349;28;20124;-86
2022/06/06 04:00:48;;;;;;;6.25;5.05;;;;;;;17.11;100.00;99998.75;5038491;28;20495;-85
2022/06/06 04:03:15;;;;;;;7.03;5.40;;;;;;;17.05;100.00;99983.88;5044785;28;20057;-85
2022/06/06 04:05:41;;;;;;;6.75;5.30;;;;;;;17.14;100.00;99983.78;5017661;28;20033;-85
2022/06/06 04:08:08;;;;;;;7.25;5.40;;;;;;;17.13;100.00;99979.44;5042277;28;20094;-84
2022/06/06 04:11:02;;;;;;;6.60;5.90;;;;;;;17.15;100.00;99971.28;5038379;28;20030;-84
2022/06/06 04:14:09;;;;;;;6.72;5.68;;;;;;;17.20;100.00;99957.38;5042566;28;20037;-84
2022/06/06 04:16:40;;;;;;;8.15;6.22;;;;;;;17.31;100.00;99967.25;5026384;28;20098;-84
2022/06/06 04:19:29;;;;;;;6.20;5.13;;;;;;;17.35;100.00;99968.56;5036408;28;21017;-84
2022/06/06 04:22:09;;;;;;;8.57;6.40;;;;;;;17.37;100.00;99965.28;5042197;28;20033;-84
2022/06/06 04:38:14;;;;;;;5.85;5.35;;;;;;;17.56;100.00;100009.47;6214408;22;1418786;-82
2022/06/06 04:40:55;;;;;;;5.70;5.07;;;;;;;17.52;100.00;100008.88;6247948;23;20012;-82
2022/06/06 04:43:28;;;;;;;6.85;5.18;;;;;;;17.46;100.00;100027.66;6249150;23;20099;-82
2022/06/06 04:45:57;;;;;;;6.05;4.57;;;;;;;17.44;100.00;100026.56;6222899;23;20070;-82
2022/06/06 04:48:24;;;;;;;6.65;4.80;;;;;;;17.33;100.00;100038.38;6249515;23;20004;-82
2022/06/06 04:50:49;;;;;;;8.32;6.80;;;;;;;17.34;100.00;100039.94;6222257;23;20059;-82
2022/06/06 04:53:19;;;;;;;6.57;4.88;;;;;;;17.32;100.00;100045.25;6222908;23;20419;-82
2022/06/06 04:55:46;;;;;;;5.25;4.47;;;;;;;17.38;100.00;100034.91;6197744;23;20012;-81
2022/06/06 04:58:13;;;;;;;5.57;4.53;;;;;;;17.45;100.00;100039.34;6224183;23;20082;-80
2022/06/06 05:00:40;;;;;;;5.40;4.68;;;;;;;17.64;100.00;100047.09;6223153;23;20020;-79
2022/06/06 05:03:06;;;;;;;6.30;4.70;;;;;;;17.69;100.00;100035.19;6251421;23;20016;-81
2022/06/06 05:05:49;;;;;;;5.75;4.63;;;;;;;17.72;100.00;100041.88;6224868;23;20019;-81
2022/06/06 05:08:20;;;;;;;5.27;4.43;;;;;;;17.80;100.00;100050.66;6247645;23;20012;-81
2022/06/06 05:11:17;;;;;;;5.00;4.50;;;;;;;17.71;100.00;100040.34;6248944;23;20083;-81
2022/06/06 05:14:04;;;;;;;7.65;4.88;;;;;;;17.70;100.00;100044.41;6250496;23;20047;-80
2022/06/06 05:17:07;;;;;;;6.45;5.05;;;;;;;17.77;100.00;100043.22;6249729;23;20020;-81
2022/06/06 05:20:02;;;;;;;4.95;4.25;;;;;;;17.96;100.00;100055.75;6246457;23;20069;-80
2022/06/06 05:22:45;;;;;;;5.15;4.40;;;;;;;18.13;100.00;100053.97;6179396;23;20011;-81
2022/06/06 05:25:29;;;;;;;;;;;;;;;18.26;100.00;100051.63;6250197;23;20019;-82
2022/06/06 05:28:04;;;;;;;;;;;;;;;18.36;100.00;100061.44;6250165;23;19939;-82
2022/06/06 05:30:38;;;;;;;4.85;4.38;;;;;;;18.54;100.00;100054.81;6251108;23;19969;-83
2022/06/06 05:33:15;;;;;;;6.18;4.75;;;;;;;18.71;100.00;100058.63;6250584;23;20012;-83
2022/06/06 05:36:01;;;;;;;5.38;4.88;;;;;;;18.97;100.00;100064.25;6246207;23;20016;-83
2022/06/06 05:38:51;;;;;;;5.57;5.07;;;;;;;19.15;100.00;100066.78;6242313;23;20012;-83
2022/06/06 05:41:32;;;;;;;5.47;4.88;;;;;;;19.43;100.00;100072.69;6244632;23;20012;-83
2022/06/06 05:44:03;;;;;;;5.65;5.05;;;;;;;19.61;100.00;100063.16;6244472;23;20016;-83
2022/06/06 05:46:41;;;;;;;4.97;4.47;;;;;;;19.86;100.00;100068.72;6244579;23;20070;-82
2022/06/06 05:49:12;;;;;;;6.57;4.47;;;;;;;20.08;100.00;100070.16;6243700;23;20043;-82
2022/06/06 05:51:47;;;;;;;5.30;4.60;;;;;;;20.11;100.00;100067.09;6192985;23;20012;-82
2022/06/06 05:54:23;;;;;;;5.28;4.78;;;;;;;20.27;100.00;100072.06;6218391;23;20023;-82
2022/06/06 05:57:03;;;;;;;6.07;4.65;;;;;;;20.51;98.95;100068.13;6243863;23;20069;-82
2022/06/06 05:59:50;;;;;;;5.40;4.90;;;;;;;20.71;96.60;100070.78;6216616;23;20062;-83
2022/06/06 06:02:42;;;;;;;5.00;4.32;;;;;;;20.94;95.87;100056.28;6244240;23;20101;-83
2022/06/06 06:05:26;;;;;;;7.10;4.30;;;;;;;21.02;92.07;100059.38;6214100;23;20343;-82
2022/06/06 06:08:09;;;;;;;4.90;4.40;;;;;;;21.10;92.53;100068.88;6242511;23;20035;-81
2022/06/06 06:10:57;;;;;;;5.60;5.00;;;;;;;21.27;89.31;100066.88;6215148;23;20069;-81
2022/06/06 06:13:35;;;;;;;5.07;4.57;;;;;;;21.50;87.95;100070.53;6216004;23;20019;-83
2022/06/06 06:16:03;;;;;;;5.68;4.72;;;;;;;21.58;85.42;100076.44;6243879;23;20014;-83
2022/06/06 06:18:34;;;;;;;5.10;4.60;;;;;;;21.54;80.90;100079.50;6216196;23;20024;-83
2022/06/06 06:21:08;;;;;;;5.10;4.60;;;;;;;21.49;86.19;100090.78;6215754;23;20008;-83
2022/06/06 06:23:36;;;;;;;4.75;4.20;;;;;;;21.60;88.45;100085.13;6212839;23;20054;-83
2022/06/06 06:26:05;;;;;;;4.97;4.40;;;;;;;21.83;89.12;100083.88;6215806;23;20385;-83
2022/06/06 06:28:36;;;;;;;4.88;4.38;;;;;;;21.92;81.85;100102.66;6214323;23;20012;-83
2022/06/06 06:31:29;;;;;;;4.70;4.30;;;;;;;22.17;85.06;100093.13;6214565;23;20012;-83
2022/06/06 06:34:10;;;;;;;4.70;4.30;;;;;;;22.52;81.44;100086.88;6240977;23;20020;-81
2022/06/06 06:37:24;;;;;;;8.70;4.50;;;;;;;22.80;79.95;100103.78;6191152;23;20020;-83
2022/06/06 06:40:09;;;;;;;4.70;4.15;;;;;;;23.05;79.84;100102.66;6235145;23;20121;-82
2022/06/06 06:42:51;;;;;;;6.13;4.22;;;;;;;23.24;78.14;100115.66;6240516;23;20061;-82
2022/06/06 06:45:42;;;;;;;5.43;4.20;;;;;;;23.40;79.81;100110.44;6211229;23;20048;-82
2022/06/06 06:48:12;;;;;;;5.28;4.28;;;;;;;23.43;77.84;100118.66;6211763;23;20228;-82
2022/06/06 06:50:54;;;;;;;4.72;4.30;;;;;;;23.39;77.76;100117.38;6242276;23;20023;-82
2022/06/06 06:53:30;;;;;;;6.40;4.45;;;;;;;23.47;76.76;100121.22;6240332;23;20295;-82
2022/06/06 06:56:02;;;;;;;5.03;4.55;;;;;;;23.66;73.17;100110.78;6241179;23;20008;-82
2022/06/06 06:59:08;;;;;;;5.03;4.50;;;;;;;24.09;69.87;100106.06;6188598;23;20393;-83
2022/06/06 07:08:34;;;;;;;6.22;4.70;;;;;;;24.21;66.56;100094.66;6240737;23;20012;-82
2022/06/06 07:11:36;;;;;;;6.28;4.95;;;;;;;24.20;69.10;100098.78;6240870;23;20438;-82
2022/06/06 07:14:40;;;;;;;30.85;5.90;;;;;;;24.14;66.51;100099.59;6240133;23;20335;-82
2022/06/06 07:17:08;;;;;;;5.57;4.97;;;;;;;24.07;67.33;100097.31;6240730;23;20016;-82
2022/06/06 07:19:44;;;;;;;5.10;4.60;;;;;;;23.69;68.43;100101.25;6189413;23;20031;-82
2022/06/06 07:22:11;;;;;;;5.22;4.72;;;;;;;23.54;68.23;100100.81;6213694;23;20031;-81
2022/06/06 07:24:37;;;;;;;5.30;4.80;;;;;;;23.52;68.96;100097.78;6187565;23;20350;-82
2022/06/06 07:27:03;;;;;;;6.78;4.45;;;;;;;23.26;68.61;100098.16;6238888;23;20008;-82
2022/06/06 07:29:29;;;;;;;5.18;4.68;;;;;;;23.14;69.07;100094.63;6238538;23;20030;-81
2022/06/06 07:32:15;;;;;;;5.45;4.90;;;;;;;23.31;67.57;100105.06;6211935;23;20039;-83
2022/06/06 07:35:02;;;;;;;5.35;4.70;;;;;;;23.55;68.63;100097.47;6211604;23;20043;-82
2022/06/06 07:37:48;;;;;;;5.20;4.70;;;;;;;24.13;66.55;100109.38;6212317;23;20020;-82
2022/06/06 07:40:35;;;;;;;4.95;4.45;;;;;;;24.55;64.11;100107.94;6240501;23;20012;-83
2022/06/06 07:43:39;;;;;;;5.22;4.60;;;;;;;24.95;63.17;100111.88;6214218;23;20016;-84
2022/06/06 07:46:41;;;;;;;4.93;4.53;;;;;;;25.15;61.86;100104.94;6213602;23;20042;-84
2022/06/06 07:49:50;;;;;;;5.85;4.68;;;;;;;25.47;59.24;100099.31;6181699;23;20443;-83
2022/06/06 07:52:25;;;;;;;5.00;4.60;;;;;;;25.80;59.75;100104.47;6239264;23;20016;-82
2022/06/06 07:55:08;;;;;;;5.15;4.60;;;;;;;25.91;56.71;100092.94;6241200;23;20008;-83
2022/06/06 07:58:03;;;;;;;5.57;4.53;;;;;;;26.20;56.25;100096.09;6214832;23;20031;-83
2022/06/06 08:00:29;;;;;;;5.05;4.40;;;;;;;26.47;56.42;100080.59;6214603;23;20015;-83
2022/06/06 08:02:59;;;;;;;5.03;4.53;;;;;;;26.39;53.87;100091.84;6240526;23;20087;-83
2022/06/06 08:05:49;;;;;;;6.10;4.15;;;;;;;26.51;53.88;100085.94;6241030;23;20020;-83
2022/06/06 08:08:20;;;;;;;5.40;4.35;;;;;;;26.52;55.52;100093.94;6240511;23;20016;-83
2022/06/06 08:10:47;;;;;;;5.00;4.28;;;;;;;26.73;54.39;100080.56;6214462;23;20070;-84
2022/06/06 08:13:31;;;;;;;4.80;4.30;;;;;;;26.71;52.64;100100.28;6240263;23;20086;-83
2022/06/06 08:16:06;;;;;;;4.95;4.53;;;;;;;26.84;51.90;100091.78;6241407;23;20441;-84
2022/06/06 08:19:05;;;;;;;5.75;4.00;;;;;;;26.64;50.00;100071.72;6240626;23;20122;-84
2022/06/06 08:21:46;;;;;;;4.40;4.00;;;;;;;26.54;51.60;100090.53;6240781;23;20020;-84
2022/06/06 08:24:23;;;;;;;5.68;3.70;;;;;;;26.72;51.90;100084.75;6240288;23;20016;-82
2022/06/06 08:26:50;;;;;;;4.97;3.53;;;;;;;26.75;52.06;100080.81;6241332;23;20012;-82
2022/06/06 08:29:17;;;;;;;4.10;3.28;;;;;;;26.77;52.50;100092.38;6213550;23;20016;-82
2022/06/06 08:31:42;;;;;;;4.07;3.33;;;;;;;26.63;51.06;100090.09;6241247;23;20004;-83
2022/06/06 08:34:08;;;;;;;3.83;3.10;;;;;;;26.49;50.86;100095.00;6213569;23;20517;-83
2022/06/06 08:37:00;;;;;;;5.00;3.30;;;;;;;26.55;52.41;100092.84;6240559;23;20500;-82
2022/06/06 08:39:47;;;;;;;4.10;2.60;;;;;;;26.63;50.53;100093.72;6169019;23;20012;-82
2022/06/06 08:42:22;;;;;;;4.32;2.80;;;;;;;26.69;51.21;100090.78;6240819;23;20012;-83
2022/06/06 08:45:22;;;;;;;4.57;3.10;;;;;;;26.59;52.05;100087.59;6213711;23;20082;-83
2022/06/06 08:48:06;;;;;;;3.72;2.90;;;;;;;26.80;51.07;100097.00;6185342;23;20055;-83
2022/06/06 08:50:47;;;;;;;3.15;2.67;;;;;;;26.93;51.02;100081.25;6237755;23;20038;-83
2022/06/06 08:53:41;;;;;;;3.42;2.58;;;;;;;27.04;49.89;100081.00;6213695;23;20168;-83
2022/06/06 08:56:45;;;;;;;3.17;2.70;;;;;;;27.19;50.62;100084.03;6239586;23;20385;-81
2022/06/06 08:59:29;;;;;;;3.15;2.60;;;;;;;27.46;50.36;100082.63;6213401;23;20017;-82
2022/06/06 09:02:37;;;;;;;3.08;2.63;;;;;;;27.72;49.81;100082.56;6240350;23;20008;-82
2022/06/06 09:05:30;;;;;;;2.75;2.22;;;;;;;27.82;47.55;100075.03;6212116;23;20016;-82
2022/06/06 09:08:23;;;;;;;4.07;2.63;;;;;;;27.60;49.28;100081.28;6238421;23;20540;-84
2022/06/06 09:10:49;;;;;;;;;;;;;;;27.42;48.23;100081.47;6239019;23;20224;-82
2022/06/06 09:13:52;;;;;;;4.00;2.20;;;;;;;27.11;48.62;100071.78;6240934;23;20322;-83
2022/06/06 09:16:45;;;;;;;4.10;2.30;;;;;;;26.87;51.53;100082.13;6242185;23;20454;-84
2022/06/06 09:19:28;;;;;;;4.25;2.53;;;;;;;26.93;50.23;100087.72;6215242;23;20015;-84
2022/06/06 09:22:18;;;;;;;5.00;2.85;;;;;;;27.23;48.48;100081.59;6241625;23;20365;-83
2022/06/06 09:25:23;;;;;;;2.83;2.17;;;;;;;27.56;48.85;100085.81;6242284;23;20044;-83
2022/06/06 09:28:24;;;;;;;2.78;2.00;;;;;;;27.54;47.77;100083.50;6242717;23;20461;-83
2022/06/06 09:31:03;;;;;;;3.47;2.08;;;;;;;27.39;49.27;100086.16;6215581;23;20024;-83
2022/06/06 09:33:38;;;;;;;2.67;2.10;;;;;;;27.54;49.01;100083.50;6216704;23;20397;-81
2022/06/06 09:36:38;;;;;;;3.40;2.30;;;;;;;27.96;47.94;100089.97;6241329;23;20490;-81
2022/06/06 09:39:27;;;;;;;3.10;1.80;;;;;;;28.11;48.28;100084.44;6240899;23;20024;-81
2022/06/06 09:42:26;;;;;;;3.25;1.98;;;;;;;27.73;45.45;100091.88;6241279;23;20477;-83
2022/06/06 09:44:57;;;;;;;3.97;2.10;;;;;;;27.67;47.77;100092.00;6240551;23;20516;-82
2022/06/06 09:47:44;;;;;;;2.67;2.00;;;;;;;27.44;49.66;100068.19;6240340;23;20020;-81
2022/06/06 09:50:36;;;;;;;4.30;2.28;;;;;;;27.65;48.41;100080.41;6239234;23;20477;-82
2022/06/06 09:53:40;;;;;;;2.30;2.10;;;;;;;27.88;49.40;100076.97;6214550;23;20019;-80
2022/06/06 09:59:22;;;;;;;3.58;2.45;;;;;;;28.29;48.04;100076.97;6241737;23;20020;-81
2022/06/06 10:02:21;;;;;;;3.78;2.25;;;;;;;28.03;46.99;100065.69;6215043;23;20004;-80
2022/06/06 10:05:14;;;;;;;3.05;2.30;;;;;;;28.10;49.11;100068.66;6241797;23;20012;-80
2022/06/06 10:08:04;;;;;;;3.85;1.77;;;;;;;28.36;48.13;100070.53;6215253;23;20030;-81
2022/06/06 10:10:45;;;;;;;4.20;2.13;;;;;;;28.26;45.90;100072.38;6242781;23;20012;-80
2022/06/06 10:13:14;;;;;;;2.70;2.00;;;;;;;27.81;46.56;100084.16;6241959;23;20027;-82
2022/06/06 10:16:10;;;;;;;3.63;1.80;;;;;;;27.68;48.41;100076.44;6242306;23;20493;-82
2022/06/06 10:18:50;;;;;;;2.53;1.80;;;;;;;27.59;46.59;100074.06;6242166;23;20066;-82
2022/06/06 10:21:42;;;;;;;2.17;1.80;;;;;;;27.64;47.42;100076.00;6215016;23;20095;-81
2022/06/06 10:24:32;;;;;;;2.80;1.92;;;;;;;27.74;47.22;100074.19;6157951;23;20026;-82
2022/06/06 10:27:28;;;;;;;3.40;2.00;;;;;;;27.82;48.22;100063.63;6215649;23;20095;-82
2022/06/06 10:30:23;;;;;;;3.03;1.98;;;;;;;28.04;48.00;100067.22;6241539;23;20024;-82
2022/06/06 10:32:52;;;;;;;2.63;1.95;;;;;;;28.43;47.34;100061.25;6241867;23;20016;-82
2022/06/06 10:35:25;;;;;;;2.92;2.00;;;;;;;28.66;46.93;100058.56;6240972;23;20030;-83
2022/06/06 10:38:00;;;;;;;2.78;1.90;;;;;;;28.85;46.61;100066.84;6215408;23;20012;-83
2022/06/06 10:40:47;;;;;;;4.18;2.20;;;;;;;28.74;46.99;100059.38;6241817;23;20099;-82
2022/06/06 10:43:33;;;;;;;2.40;1.90;;;;;;;28.69;48.11;100052.50;6242131;23;20012;-82
2022/06/06 10:46:03;;;;;;;2.38;1.70;;;;;;;29.04;46.53;100058.75;6241586;23;20098;-81
2022/06/06 10:48:40;;;;;;;2.83;1.95;;;;;;;28.96;45.02;100049.38;6216058;23;20461;-82
2022/06/06 10:54:11;;;;;;;2.53;1.75;;;;;;;27.56;48.71;100046.69;6219272;23;20011;-82
2022/06/06 10:56:45;;;;;;;2.90;1.70;;;;;;;27.74;48.83;100045.69;6242161;23;20346;-83
2022/06/06 10:59:45;;;;;;;3.88;1.90;;;;;;;28.17;48.34;100052.91;6240191;23;20023;-82
2022/06/06 11:02:34;;;;;;;2.78;1.92;;;;;;;28.72;45.98;100051.38;6240021;23;20031;-83
2022/06/06 11:05:06;;;;;;;4.20;1.73;;;;;;;28.95;45.83;100051.50;6238973;23;20413;-82
2022/06/06 11:07:49;;;;;;;3.20;1.90;;;;;;;28.85;46.45;100047.63;6240792;23;20012;-83
2022/06/06 11:10:25;;;;;;;5.55;2.97;;;;;;;29.11;47.77;100046.59;6240144;23;20012;-82
2022/06/06 11:13:29;;;;;;;4.28;2.50;;;;;;;29.24;46.36;100048.53;6213704;23;20113;-81
2022/06/06 11:16:03;;;;;;;2.97;1.90;;;;;;;29.07;45.79;100046.22;6239874;23;20027;-81
2022/06/06 11:18:48;;;;;;;2.50;1.73;;;;;;;29.20;45.10;100043.19;6213483;23;20023;-82
2022/06/06 11:21:27;;;;;;;2.42;1.50;;;;;;;29.05;44.60;100043.91;6240249;23;20057;-82
2022/06/06 11:24:19;;;;;;;3.15;1.50;;;;;;;28.69;44.73;100046.81;6213482;23;20128;-82
2022/06/06 11:27:29;;;;;;;2.60;1.52;;;;;;;28.53;43.73;100035.84;6214114;23;20016;-82
2022/06/06 11:30:16;;;;;;;1.85;1.45;;;;;;;28.26;46.42;100035.31;6240584;23;20074;-82
2022/06/06 11:33:16;;;;;;;2.08;1.40;;;;;;;28.50;46.02;100026.31;6213371;23;20069;-82
2022/06/06 11:35:52;;;;;;;2.90;1.50;;;;;;;28.77;46.12;100035.41;6213700;23;20087;-82
2022/06/06 11:39:05;;;;;;;2.15;1.50;;;;;;;28.72;45.42;100031.41;6213336;23;20024;-81
2022/06/06 11:41:39;;;;;;;2.92;1.35;;;;;;;28.91;45.72;100022.56;6176841;23;20123;-82
2022/06/06 11:44:05;;;;;;;1.40;1.30;;;;;;;29.02;43.99;100030.00;6176168;23;20021;-83
2022/06/06 11:46:52;;;;;;;1.90;1.30;;;;;;;28.59;44.05;100030.75;6187986;23;20328;-85
2022/06/06 11:49:55;;;;;;;1.98;1.50;;;;;;;28.72;46.40;100019.97;6239269;23;20336;-83
2022/06/06 11:52:23;;;;;;;2.83;1.80;;;;;;;28.79;43.80;100021.38;6241977;23;20020;-82
2022/06/06 11:55:17;;;;;;;1.73;1.45;;;;;;;28.56;42.33;100032.63;6241108;23;20008;-83
2022/06/06 11:58:03;;;;;;;2.00;1.40;;;;;;;28.14;45.30;100016.97;6241791;23;20019;-81
2022/06/06 12:00:31;;;;;;;3.65;1.60;;;;;;;28.40;46.03;100021.69;6240167;23;20095;-82
2022/06/06 12:03:31;;;;;;;2.05;1.55;;;;;;;28.61;46.56;100020.28;6238784;23;20315;-82
2022/06/06 12:06:03;;;;;;;3.22;1.70;;;;;;;28.98;43.96;100003.91;6213079;23;20074;-81
2022/06/06 12:08:47;;;;;;;1.50;1.40;;;;;;;28.91;45.53;100010.38;6239953;23;20019;-81
2022/06/06 12:11:37;;;;;;;1.58;1.40;;;;;;;29.15;43.18;100012.72;6188181;23;20011;-82
2022/06/06 12:14:20;;;;;;;1.75;1.60;;;;;;;29.33;43.48;100019.44;6239575;23;20457;-82
2022/06/06 12:17:16;;;;;;;1.85;1.50;;;;;;;29.59;43.42;100017.00;6239988;23;20074;-82
2022/06/06 12:20:01;;;;;;;2.20;1.58;;;;;;;29.68;43.38;100012.06;6238646;23;20378;-82
2022/06/06 12:22:41;;;;;;;3.63;1.83;;;;;;;29.85;43.15;100006.50;6213509;23;20409;-82
2022/06/06 12:25:07;;;;;;;2.88;1.50;;;;;;;29.73;42.11;99997.56;6239560;23;20026;-83
2022/06/06 12:28:00;;;;;;;4.03;1.70;;;;;;;29.74;41.80;99993.38;6240624;23;20036;-83
2022/06/06 12:30:45;;;;;;;1.90;1.65;;;;;;;29.91;43.33;99995.69;6241389;23;20024;-83
2022/06/06 12:33:15;;;;;;;3.70;1.80;;;;;;;29.68;43.32;99986.34;6240448;23;20027;-83
2022/06/06 12:36:18;;;;;;;4.40;1.55;;;;;;;29.41;44.36;99991.63;6214370;23;20069;-83
2022/06/06 12:38:53;;;;;;;;;;;;;;;29.30;43.44;99989.91;6152633;23;20513;-83
2022/06/06 12:41:33;;;;;;;2.25;1.67;;;;;;;28.97;43.15;99988.88;6232084;23;20339;-83
2022/06/06 12:44:28;;;;;;;2.97;1.60;;;;;;;28.92;45.59;99984.09;6240791;23;20066;-83
2022/06/06 12:47:23;;;;;;;3.42;1.80;;;;;;;28.99;44.39;99983.38;6244523;23;20016;-83
2022/06/06 12:49:55;;;;;;;1.70;1.50;;;;;;;29.29;43.98;99981.91;6193006;23;20453;-83
2022/06/06 12:52:58;;;;;;;1.97;1.37;;;;;;;29.26;42.74;99989.50;6218488;23;20395;-83
2022/06/06 12:56:37;;;;;;;3.67;1.50;;;;;;;29.38;43.02;99979.25;6244452;23;20582;-83